sensor_id;sensor_type;location;lat;lon;timestamp;temperature;humidity
12180;DHT22;6153;51.490;6.586;2022-08-02T00:00:28;15.20;99.90
12180;DHT22;6153;51.490;6.586;2022-08-02T00:03:28;15.20;99.90
12180;DHT22;6153;51.490;6.586;2022-08-02T00:06:29;15.00;99.90
12180;DHT22;6153;51.490;6.586;2022-08-02T00:09:30;15.10;99.90
12180;DHT22;6153;51.490;6.586;2022-08-02T00:12:30;15.20;99.90
12180;DHT22;6153;51.490;6.586;2022-08-02T00:15:31;15.10;99.90
12180;DHT22;6153;51.490;6.586;2022-08-02T00:18:31;15.00;99.90
12180;DHT22;6153;51.490;6.586;2022-08-02T00:21:32;15.00;99.90
12180;DHT22;6153;51.490;6.586;2022-08-02T00:24:32;14.90;99.90
12180;DHT22;6153;51.490;6.586;2022-08-02T00:27:33;15.00;99.90
12180;DHT22;6153;51.490;6.586;2022-08-02T00:30:33;14.90;99.90
12180;DHT22;6153;51.490;6.586;2022-08-02T00:33:34;14.90;99.90
12180;DHT22;6153;51.490;6.586;2022-08-02T00:36:34;14.90;99.90
12180;DHT22;6153;51.490;6.586;2022-08-02T00:39:35;14.70;99.90
12180;DHT22;6153;51.490;6.586;2022-08-02T00:42:37;14.70;99.90
12180;DHT22;6153;51.490;6.586;2022-08-02T00:45:38;14.80;99.90
12180;DHT22;6153;51.490;6.586;2022-08-02T00:48:39;14.80;99.90
12180;DHT22;6153;51.490;6.586;2022-08-02T00:51:40;14.90;99.90
12180;DHT22;6153;51.490;6.586;2022-08-02T00:54:40;14.90;99.90
12180;DHT22;6153;51.490;6.586;2022-08-02T00:57:41;14.90;99.90
12180;DHT22;6153;51.490;6.586;2022-08-02T01:00:42;15.10;99.90
12180;DHT22;6153;51.490;6.586;2022-08-02T01:03:42;15.00;99.90
12180;DHT22;6153;51.490;6.586;2022-08-02T01:06:44;14.80;99.90
12180;DHT22;6153;51.490;6.586;2022-08-02T01:09:44;14.80;99.90
12180;DHT22;6153;51.490;6.586;2022-08-02T01:12:45;14.80;99.90
12180;DHT22;6153;51.490;6.586;2022-08-02T01:15:49;14.80;99.90
12180;DHT22;6153;51.490;6.586;2022-08-02T01:18:52;14.80;99.90
12180;DHT22;6153;51.490;6.586;2022-08-02T01:21:56;14.70;99.90
12180;DHT22;6153;51.490;6.586;2022-08-02T01:25:06;14.70;99.90
12180;DHT22;6153;51.490;6.586;2022-08-02T01:31:34;14.70;99.90
12180;DHT22;6153;51.490;6.586;2022-08-02T01:37:57;14.70;99.90
12180;DHT22;6153;51.490;6.586;2022-08-02T01:41:03;14.70;99.90
12180;DHT22;6153;51.490;6.586;2022-08-02T01:44:06;14.50;99.90
12180;DHT22;6153;51.490;6.586;2022-08-02T01:47:10;14.40;99.90
12180;DHT22;6153;51.490;6.586;2022-08-02T01:50:14;14.30;99.90
12180;DHT22;6153;51.490;6.586;2022-08-02T01:53:15;14.20;99.90
12180;DHT22;6153;51.490;6.586;2022-08-02T01:56:18;14.10;99.90
12180;DHT22;6153;51.490;6.586;2022-08-02T01:59:20;14.10;99.90
12180;DHT22;6153;51.490;6.586;2022-08-02T02:02:21;14.20;99.90
12180;DHT22;6153;51.490;6.586;2022-08-02T02:05:23;14.20;99.90
12180;DHT22;6153;51.490;6.586;2022-08-02T02:08:25;14.10;99.90
12180;DHT22;6153;51.490;6.586;2022-08-02T02:11:27;14.10;99.90
12180;DHT22;6153;51.490;6.586;2022-08-02T02:14:27;14.00;99.90
12180;DHT22;6153;51.490;6.586;2022-08-02T02:17:29;14.00;99.90
12180;DHT22;6153;51.490;6.586;2022-08-02T02:20:30;14.00;99.90
12180;DHT22;6153;51.490;6.586;2022-08-02T02:23:31;14.10;99.90
12180;DHT22;6153;51.490;6.586;2022-08-02T02:26:31;14.10;99.90
12180;DHT22;6153;51.490;6.586;2022-08-02T02:29:33;13.90;99.90
12180;DHT22;6153;51.490;6.586;2022-08-02T02:32:34;13.90;99.90
12180;DHT22;6153;51.490;6.586;2022-08-02T02:35:36;13.80;99.90
12180;DHT22;6153;51.490;6.586;2022-08-02T02:38:36;13.70;99.90
12180;DHT22;6153;51.490;6.586;2022-08-02T02:41:37;13.60;99.90
12180;DHT22;6153;51.490;6.586;2022-08-02T02:44:39;13.60;99.90
12180;DHT22;6153;51.490;6.586;2022-08-02T02:47:40;13.60;99.90
12180;DHT22;6153;51.490;6.586;2022-08-02T02:50:41;13.50;99.90
12180;DHT22;6153;51.490;6.586;2022-08-02T02:53:42;13.40;99.90
12180;DHT22;6153;51.490;6.586;2022-08-02T02:56:44;13.40;99.90
12180;DHT22;6153;51.490;6.586;2022-08-02T02:59:45;13.40;99.90
12180;DHT22;6153;51.490;6.586;2022-08-02T03:02:46;13.40;99.90
12180;DHT22;6153;51.490;6.586;2022-08-02T03:05:46;13.30;99.90
12180;DHT22;6153;51.490;6.586;2022-08-02T03:08:47;13.40;99.90
12180;DHT22;6153;51.490;6.586;2022-08-02T03:11:48;13.40;99.90
12180;DHT22;6153;51.490;6.586;2022-08-02T03:14:48;13.50;99.90
12180;DHT22;6153;51.490;6.586;2022-08-02T03:17:49;13.40;99.90
12180;DHT22;6153;51.490;6.586;2022-08-02T03:20:50;13.40;99.90
12180;DHT22;6153;51.490;6.586;2022-08-02T03:23:50;13.40;99.90
12180;DHT22;6153;51.490;6.586;2022-08-02T03:26:51;13.50;99.90
12180;DHT22;6153;51.490;6.586;2022-08-02T03:29:51;13.40;99.90
12180;DHT22;6153;51.490;6.586;2022-08-02T03:32:52;13.30;99.90
12180;DHT22;6153;51.490;6.586;2022-08-02T03:35:53;13.30;99.90
12180;DHT22;6153;51.490;6.586;2022-08-02T03:38:54;13.30;99.90
12180;DHT22;6153;51.490;6.586;2022-08-02T03:41:55;13.20;99.90
12180;DHT22;6153;51.490;6.586;2022-08-02T03:44:56;13.30;99.90
12180;DHT22;6153;51.490;6.586;2022-08-02T03:47:58;13.20;99.90
12180;DHT22;6153;51.490;6.586;2022-08-02T03:50:59;13.20;99.90
12180;DHT22;6153;51.490;6.586;2022-08-02T03:54:00;13.20;99.90
12180;DHT22;6153;51.490;6.586;2022-08-02T03:57:01;13.30;99.90
12180;DHT22;6153;51.490;6.586;2022-08-02T04:00:02;13.20;99.90
12180;DHT22;6153;51.490;6.586;2022-08-02T04:03:03;13.20;99.90
12180;DHT22;6153;51.490;6.586;2022-08-02T04:06:03;13.20;99.90
12180;DHT22;6153;51.490;6.586;2022-08-02T04:09:04;13.20;99.90
12180;DHT22;6153;51.490;6.586;2022-08-02T04:12:04;13.30;99.90
12180;DHT22;6153;51.490;6.586;2022-08-02T04:15:05;13.20;99.90
12180;DHT22;6153;51.490;6.586;2022-08-02T04:18:06;13.30;99.90
12180;DHT22;6153;51.490;6.586;2022-08-02T04:21:08;13.40;99.90
12180;DHT22;6153;51.490;6.586;2022-08-02T04:24:10;13.50;99.90
12180;DHT22;6153;51.490;6.586;2022-08-02T04:27:12;13.50;99.90
12180;DHT22;6153;51.490;6.586;2022-08-02T04:30:14;13.70;99.90
12180;DHT22;6153;51.490;6.586;2022-08-02T04:33:15;13.80;99.90
12180;DHT22;6153;51.490;6.586;2022-08-02T04:36:16;13.90;99.90
12180;DHT22;6153;51.490;6.586;2022-08-02T04:39:17;14.00;99.90
12180;DHT22;6153;51.490;6.586;2022-08-02T04:42:24;14.00;99.90
12180;DHT22;6153;51.490;6.586;2022-08-02T04:45:25;14.10;99.90
12180;DHT22;6153;51.490;6.586;2022-08-02T04:48:26;14.20;99.90
12180;DHT22;6153;51.490;6.586;2022-08-02T04:51:26;14.00;99.90
12180;DHT22;6153;51.490;6.586;2022-08-02T04:54:27;14.00;99.90
12180;DHT22;6153;51.490;6.586;2022-08-02T04:57:27;14.10;99.90
12180;DHT22;6153;51.490;6.586;2022-08-02T05:00:46;14.20;99.90
12180;DHT22;6153;51.490;6.586;2022-08-02T05:03:47;14.50;99.90
12180;DHT22;6153;51.490;6.586;2022-08-02T05:06:47;14.70;99.90
12180;DHT22;6153;51.490;6.586;2022-08-02T05:09:48;15.00;99.90
12180;DHT22;6153;51.490;6.586;2022-08-02T05:12:48;15.20;99.90
12180;DHT22;6153;51.490;6.586;2022-08-02T05:15:49;15.30;99.90
12180;DHT22;6153;51.490;6.586;2022-08-02T05:18:50;15.60;99.90
12180;DHT22;6153;51.490;6.586;2022-08-02T05:21:50;15.70;99.90
12180;DHT22;6153;51.490;6.586;2022-08-02T05:24:51;15.90;99.90
12180;DHT22;6153;51.490;6.586;2022-08-02T05:27:51;16.00;99.90
12180;DHT22;6153;51.490;6.586;2022-08-02T05:30:52;16.10;99.90
12180;DHT22;6153;51.490;6.586;2022-08-02T05:33:52;16.20;99.90
12180;DHT22;6153;51.490;6.586;2022-08-02T05:36:53;16.40;99.90
12180;DHT22;6153;51.490;6.586;2022-08-02T05:39:53;16.50;99.90
12180;DHT22;6153;51.490;6.586;2022-08-02T05:42:54;16.50;99.90
12180;DHT22;6153;51.490;6.586;2022-08-02T05:45:54;16.60;99.90
12180;DHT22;6153;51.490;6.586;2022-08-02T05:48:55;16.70;99.90
12180;DHT22;6153;51.490;6.586;2022-08-02T05:52:02;16.80;99.90
12180;DHT22;6153;51.490;6.586;2022-08-02T05:55:08;17.00;99.90
12180;DHT22;6153;51.490;6.586;2022-08-02T05:58:20;17.10;99.90
12180;DHT22;6153;51.490;6.586;2022-08-02T06:01:27;17.30;99.90
12180;DHT22;6153;51.490;6.586;2022-08-02T06:04:44;17.40;99.90
12180;DHT22;6153;51.490;6.586;2022-08-02T06:07:50;17.50;99.90
12180;DHT22;6153;51.490;6.586;2022-08-02T06:10:55;17.60;99.90
12180;DHT22;6153;51.490;6.586;2022-08-02T06:13:55;17.80;99.90
12180;DHT22;6153;51.490;6.586;2022-08-02T06:16:56;18.00;99.90
12180;DHT22;6153;51.490;6.586;2022-08-02T06:19:57;18.20;99.90
12180;DHT22;6153;51.490;6.586;2022-08-02T06:23:00;18.40;99.90
12180;DHT22;6153;51.490;6.586;2022-08-02T06:26:00;18.70;99.90
12180;DHT22;6153;51.490;6.586;2022-08-02T06:29:02;19.00;99.90
12180;DHT22;6153;51.490;6.586;2022-08-02T06:32:03;19.10;99.90
12180;DHT22;6153;51.490;6.586;2022-08-02T06:35:06;19.20;99.90
12180;DHT22;6153;51.490;6.586;2022-08-02T06:38:07;19.40;99.90
12180;DHT22;6153;51.490;6.586;2022-08-02T06:41:09;19.50;99.90
12180;DHT22;6153;51.490;6.586;2022-08-02T06:44:11;19.60;99.90
12180;DHT22;6153;51.490;6.586;2022-08-02T06:47:12;19.70;99.90
12180;DHT22;6153;51.490;6.586;2022-08-02T06:50:12;19.80;99.90
12180;DHT22;6153;51.490;6.586;2022-08-02T06:53:13;20.00;99.90
12180;DHT22;6153;51.490;6.586;2022-08-02T06:56:14;20.40;99.90
12180;DHT22;6153;51.490;6.586;2022-08-02T06:59:14;20.60;99.90
12180;DHT22;6153;51.490;6.586;2022-08-02T07:02:15;20.60;99.90
12180;DHT22;6153;51.490;6.586;2022-08-02T07:05:16;20.60;99.90
12180;DHT22;6153;51.490;6.586;2022-08-02T07:08:17;20.60;99.90
12180;DHT22;6153;51.490;6.586;2022-08-02T07:11:17;20.80;99.90
12180;DHT22;6153;51.490;6.586;2022-08-02T07:14:18;20.90;99.90
12180;DHT22;6153;51.490;6.586;2022-08-02T07:17:19;21.00;99.90
12180;DHT22;6153;51.490;6.586;2022-08-02T07:20:21;21.00;99.90
12180;DHT22;6153;51.490;6.586;2022-08-02T07:23:21;21.20;99.90
12180;DHT22;6153;51.490;6.586;2022-08-02T07:26:22;21.20;99.90
12180;DHT22;6153;51.490;6.586;2022-08-02T07:29:23;21.30;99.90
12180;DHT22;6153;51.490;6.586;2022-08-02T07:32:24;21.30;99.90
12180;DHT22;6153;51.490;6.586;2022-08-02T07:35:25;21.50;99.90
12180;DHT22;6153;51.490;6.586;2022-08-02T07:38:26;21.60;99.90
12180;DHT22;6153;51.490;6.586;2022-08-02T07:41:26;21.90;99.90
12180;DHT22;6153;51.490;6.586;2022-08-02T07:44:27;22.00;99.90
12180;DHT22;6153;51.490;6.586;2022-08-02T07:47:34;22.10;99.90
12180;DHT22;6153;51.490;6.586;2022-08-02T07:50:35;22.20;99.90
12180;DHT22;6153;51.490;6.586;2022-08-02T07:53:35;22.40;99.90
12180;DHT22;6153;51.490;6.586;2022-08-02T07:56:36;22.70;99.90
12180;DHT22;6153;51.490;6.586;2022-08-02T07:59:37;22.90;99.90
12180;DHT22;6153;51.490;6.586;2022-08-02T08:02:37;22.80;99.90
12180;DHT22;6153;51.490;6.586;2022-08-02T08:05:38;22.90;99.90
12180;DHT22;6153;51.490;6.586;2022-08-02T08:08:39;23.20;99.90
12180;DHT22;6153;51.490;6.586;2022-08-02T08:11:40;23.40;99.90
12180;DHT22;6153;51.490;6.586;2022-08-02T08:14:41;23.50;99.90
12180;DHT22;6153;51.490;6.586;2022-08-02T08:17:41;23.70;99.90
12180;DHT22;6153;51.490;6.586;2022-08-02T08:20:42;23.70;99.90
12180;DHT22;6153;51.490;6.586;2022-08-02T08:23:42;23.90;99.90
12180;DHT22;6153;51.490;6.586;2022-08-02T08:26:43;24.10;99.90
12180;DHT22;6153;51.490;6.586;2022-08-02T08:29:43;24.20;99.90
12180;DHT22;6153;51.490;6.586;2022-08-02T08:32:44;24.30;99.90
12180;DHT22;6153;51.490;6.586;2022-08-02T08:35:45;24.30;99.90
12180;DHT22;6153;51.490;6.586;2022-08-02T08:38:46;24.40;99.90
12180;DHT22;6153;51.490;6.586;2022-08-02T08:41:46;24.70;99.90
12180;DHT22;6153;51.490;6.586;2022-08-02T08:44:47;24.70;99.90
12180;DHT22;6153;51.490;6.586;2022-08-02T08:47:51;24.30;99.90
12180;DHT22;6153;51.490;6.586;2022-08-02T08:50:54;24.40;99.90
12180;DHT22;6153;51.490;6.586;2022-08-02T08:53:56;24.60;99.90
12180;DHT22;6153;51.490;6.586;2022-08-02T08:56:58;24.80;99.90
12180;DHT22;6153;51.490;6.586;2022-08-02T08:59:59;25.00;99.90
12180;DHT22;6153;51.490;6.586;2022-08-02T09:03:01;25.10;99.90
12180;DHT22;6153;51.490;6.586;2022-08-02T09:06:02;25.40;99.90
12180;DHT22;6153;51.490;6.586;2022-08-02T09:09:02;25.80;99.90
12180;DHT22;6153;51.490;6.586;2022-08-02T09:12:13;25.80;99.90
12180;DHT22;6153;51.490;6.586;2022-08-02T09:15:14;25.80;99.90
12180;DHT22;6153;51.490;6.586;2022-08-02T09:18:30;25.90;99.90
12180;DHT22;6153;51.490;6.586;2022-08-02T09:21:35;26.30;99.90
12180;DHT22;6153;51.490;6.586;2022-08-02T09:24:40;26.30;99.90
12180;DHT22;6153;51.490;6.586;2022-08-02T09:27:40;26.30;99.90
12180;DHT22;6153;51.490;6.586;2022-08-02T09:30:41;26.50;99.90
12180;DHT22;6153;51.490;6.586;2022-08-02T09:33:42;26.70;99.90
12180;DHT22;6153;51.490;6.586;2022-08-02T09:36:44;26.60;99.90
12180;DHT22;6153;51.490;6.586;2022-08-02T09:39:45;26.80;99.90
12180;DHT22;6153;51.490;6.586;2022-08-02T09:42:58;26.90;99.90
12180;DHT22;6153;51.490;6.586;2022-08-02T09:46:04;27.30;99.90
12180;DHT22;6153;51.490;6.586;2022-08-02T09:49:09;27.20;99.90
12180;DHT22;6153;51.490;6.586;2022-08-02T09:52:10;27.50;99.90
12180;DHT22;6153;51.490;6.586;2022-08-02T09:55:11;27.40;99.90
12180;DHT22;6153;51.490;6.586;2022-08-02T09:58:18;27.20;99.90
12180;DHT22;6153;51.490;6.586;2022-08-02T10:01:20;27.00;99.90
12180;DHT22;6153;51.490;6.586;2022-08-02T10:04:21;26.90;99.90
12180;DHT22;6153;51.490;6.586;2022-08-02T10:07:22;27.40;99.90
12180;DHT22;6153;51.490;6.586;2022-08-02T10:10:23;27.10;99.90
12180;DHT22;6153;51.490;6.586;2022-08-02T10:13:23;27.20;99.90
12180;DHT22;6153;51.490;6.586;2022-08-02T10:16:24;27.80;99.90
12180;DHT22;6153;51.490;6.586;2022-08-02T10:19:25;28.00;99.90
12180;DHT22;6153;51.490;6.586;2022-08-02T10:22:26;28.30;99.90
12180;DHT22;6153;51.490;6.586;2022-08-02T10:25:27;28.10;99.90
12180;DHT22;6153;51.490;6.586;2022-08-02T10:28:28;27.70;99.90
12180;DHT22;6153;51.490;6.586;2022-08-02T10:31:48;27.80;99.90
12180;DHT22;6153;51.490;6.586;2022-08-02T10:35:00;28.00;99.90
12180;DHT22;6153;51.490;6.586;2022-08-02T10:38:05;28.70;99.90
12180;DHT22;6153;51.490;6.586;2022-08-02T10:41:07;29.20;99.90
12180;DHT22;6153;51.490;6.586;2022-08-02T10:44:07;28.90;99.90
12180;DHT22;6153;51.490;6.586;2022-08-02T10:47:23;28.30;99.90
12180;DHT22;6153;51.490;6.586;2022-08-02T10:53:43;28.10;99.90
12180;DHT22;6153;51.490;6.586;2022-08-02T10:56:48;28.20;99.90
12180;DHT22;6153;51.490;6.586;2022-08-02T10:59:54;28.60;99.90
12180;DHT22;6153;51.490;6.586;2022-08-02T11:02:54;28.70;99.90
12180;DHT22;6153;51.490;6.586;2022-08-02T11:06:12;28.30;99.90
12180;DHT22;6153;51.490;6.586;2022-08-02T11:09:28;29.00;99.90
12180;DHT22;6153;51.490;6.586;2022-08-02T11:12:31;29.10;99.90
12180;DHT22;6153;51.490;6.586;2022-08-02T11:16:02;28.90;99.90
12180;DHT22;6153;51.490;6.586;2022-08-02T11:19:04;29.50;99.90
12180;DHT22;6153;51.490;6.586;2022-08-02T11:22:10;29.40;99.90
12180;DHT22;6153;51.490;6.586;2022-08-02T11:28:24;29.70;99.90
12180;DHT22;6153;51.490;6.586;2022-08-02T11:31:26;29.60;99.90
12180;DHT22;6153;51.490;6.586;2022-08-02T11:34:26;29.30;99.90
12180;DHT22;6153;51.490;6.586;2022-08-02T11:37:31;29.50;99.90
12180;DHT22;6153;51.490;6.586;2022-08-02T11:40:36;29.60;99.90
12180;DHT22;6153;51.490;6.586;2022-08-02T11:43:38;30.10;99.90
12180;DHT22;6153;51.490;6.586;2022-08-02T11:46:39;29.80;99.90
12180;DHT22;6153;51.490;6.586;2022-08-02T11:49:40;30.00;99.90
12180;DHT22;6153;51.490;6.586;2022-08-02T11:52:42;29.70;99.90
12180;DHT22;6153;51.490;6.586;2022-08-02T11:55:43;29.60;99.90
12180;DHT22;6153;51.490;6.586;2022-08-02T12:02:04;29.10;99.90
12180;DHT22;6153;51.490;6.586;2022-08-02T12:05:06;29.20;99.90
12180;DHT22;6153;51.490;6.586;2022-08-02T12:08:07;29.20;99.90
12180;DHT22;6153;51.490;6.586;2022-08-02T12:11:08;29.60;99.90
12180;DHT22;6153;51.490;6.586;2022-08-02T12:14:08;29.90;99.90
12180;DHT22;6153;51.490;6.586;2022-08-02T12:17:10;30.10;99.90
12180;DHT22;6153;51.490;6.586;2022-08-02T12:20:36;30.20;99.90
12180;DHT22;6153;51.490;6.586;2022-08-02T12:23:42;30.50;99.90
12180;DHT22;6153;51.490;6.586;2022-08-02T12:26:44;30.20;99.80
12180;DHT22;6153;51.490;6.586;2022-08-02T12:29:45;30.00;99.90
12180;DHT22;6153;51.490;6.586;2022-08-02T12:32:46;30.10;99.20
12180;DHT22;6153;51.490;6.586;2022-08-02T12:35:47;30.30;99.60
12180;DHT22;6153;51.490;6.586;2022-08-02T12:38:56;30.40;99.20
12180;DHT22;6153;51.490;6.586;2022-08-02T12:41:57;30.30;99.70
12180;DHT22;6153;51.490;6.586;2022-08-02T12:44:58;30.70;98.90
12180;DHT22;6153;51.490;6.586;2022-08-02T12:48:00;30.20;99.20
12180;DHT22;6153;51.490;6.586;2022-08-02T12:51:22;30.30;99.30
12180;DHT22;6153;51.490;6.586;2022-08-02T12:54:29;30.40;98.30
12180;DHT22;6153;51.490;6.586;2022-08-02T12:58:00;30.40;97.90
12180;DHT22;6153;51.490;6.586;2022-08-02T13:01:01;30.40;97.90
12180;DHT22;6153;51.490;6.586;2022-08-02T13:04:02;30.40;97.70
12180;DHT22;6153;51.490;6.586;2022-08-02T13:07:04;30.40;98.40
12180;DHT22;6153;51.490;6.586;2022-08-02T13:10:05;30.30;98.30
12180;DHT22;6153;51.490;6.586;2022-08-02T13:13:06;30.20;98.20
12180;DHT22;6153;51.490;6.586;2022-08-02T13:16:08;30.30;98.30
12180;DHT22;6153;51.490;6.586;2022-08-02T13:19:09;30.40;98.10
12180;DHT22;6153;51.490;6.586;2022-08-02T13:22:10;30.60;97.90
12180;DHT22;6153;51.490;6.586;2022-08-02T13:25:11;30.50;98.20
12180;DHT22;6153;51.490;6.586;2022-08-02T13:28:12;30.80;97.60
12180;DHT22;6153;51.490;6.586;2022-08-02T13:31:12;30.70;97.10
12180;DHT22;6153;51.490;6.586;2022-08-02T13:34:13;31.00;97.40
12180;DHT22;6153;51.490;6.586;2022-08-02T13:37:16;31.10;97.20
12180;DHT22;6153;51.490;6.586;2022-08-02T13:40:16;31.30;96.90
12180;DHT22;6153;51.490;6.586;2022-08-02T13:43:17;31.10;96.40
12180;DHT22;6153;51.490;6.586;2022-08-02T13:46:18;31.10;96.40
12180;DHT22;6153;51.490;6.586;2022-08-02T13:49:19;31.00;96.50
12180;DHT22;6153;51.490;6.586;2022-08-02T13:52:20;30.70;97.20
12180;DHT22;6153;51.490;6.586;2022-08-02T13:55:21;31.10;96.70
12180;DHT22;6153;51.490;6.586;2022-08-02T13:58:21;30.80;95.80
12180;DHT22;6153;51.490;6.586;2022-08-02T14:01:22;30.60;96.00
12180;DHT22;6153;51.490;6.586;2022-08-02T14:04:23;30.50;95.70
12180;DHT22;6153;51.490;6.586;2022-08-02T14:07:24;30.40;96.00
12180;DHT22;6153;51.490;6.586;2022-08-02T14:10:25;31.00;95.90
12180;DHT22;6153;51.490;6.586;2022-08-02T14:13:26;31.70;94.50
12180;DHT22;6153;51.490;6.586;2022-08-02T14:16:27;31.80;94.10
12180;DHT22;6153;51.490;6.586;2022-08-02T14:19:27;31.80;93.80
12180;DHT22;6153;51.490;6.586;2022-08-02T14:22:28;31.80;93.80
12180;DHT22;6153;51.490;6.586;2022-08-02T14:25:29;31.50;94.40
12180;DHT22;6153;51.490;6.586;2022-08-02T14:28:30;31.80;93.90
12180;DHT22;6153;51.490;6.586;2022-08-02T14:31:30;31.60;94.50
12180;DHT22;6153;51.490;6.586;2022-08-02T14:34:31;31.60;94.00
12180;DHT22;6153;51.490;6.586;2022-08-02T14:37:32;31.20;94.10
12180;DHT22;6153;51.490;6.586;2022-08-02T14:40:33;31.20;95.00
12180;DHT22;6153;51.490;6.586;2022-08-02T14:43:34;31.90;93.40
12180;DHT22;6153;51.490;6.586;2022-08-02T14:46:53;32.10;93.20
12180;DHT22;6153;51.490;6.586;2022-08-02T14:49:54;31.70;92.30
12180;DHT22;6153;51.490;6.586;2022-08-02T14:52:54;31.90;92.70
12180;DHT22;6153;51.490;6.586;2022-08-02T14:55:55;32.00;92.70
12180;DHT22;6153;51.490;6.586;2022-08-02T14:58:56;31.80;93.40
12180;DHT22;6153;51.490;6.586;2022-08-02T15:01:58;31.90;92.80
12180;DHT22;6153;51.490;6.586;2022-08-02T15:04:58;31.40;93.40
12180;DHT22;6153;51.490;6.586;2022-08-02T15:07:59;31.50;92.80
12180;DHT22;6153;51.490;6.586;2022-08-02T15:11:00;31.70;91.70
12180;DHT22;6153;51.490;6.586;2022-08-02T15:14:00;31.80;91.50
12180;DHT22;6153;51.490;6.586;2022-08-02T15:17:03;31.70;91.50
12180;DHT22;6153;51.490;6.586;2022-08-02T15:20:04;31.60;91.50
12180;DHT22;6153;51.490;6.586;2022-08-02T15:23:05;31.60;91.50
12180;DHT22;6153;51.490;6.586;2022-08-02T15:26:05;31.60;91.70
12180;DHT22;6153;51.490;6.586;2022-08-02T15:29:06;31.30;92.00
12180;DHT22;6153;51.490;6.586;2022-08-02T15:32:07;31.60;91.80
12180;DHT22;6153;51.490;6.586;2022-08-02T15:35:07;31.40;92.10
12180;DHT22;6153;51.490;6.586;2022-08-02T15:38:08;31.70;92.20
12180;DHT22;6153;51.490;6.586;2022-08-02T15:41:09;31.60;91.80
12180;DHT22;6153;51.490;6.586;2022-08-02T15:44:10;31.70;91.60
12180;DHT22;6153;51.490;6.586;2022-08-02T15:47:13;32.10;91.60
12180;DHT22;6153;51.490;6.586;2022-08-02T15:50:13;32.40;91.10
12180;DHT22;6153;51.490;6.586;2022-08-02T15:53:14;32.50;90.90
12180;DHT22;6153;51.490;6.586;2022-08-02T15:56:15;32.90;90.60
12180;DHT22;6153;51.490;6.586;2022-08-02T15:59:16;32.20;90.10
12180;DHT22;6153;51.490;6.586;2022-08-02T16:02:16;31.70;90.10
12180;DHT22;6153;51.490;6.586;2022-08-02T16:05:18;32.50;90.80
12180;DHT22;6153;51.490;6.586;2022-08-02T16:08:20;32.70;90.70
12180;DHT22;6153;51.490;6.586;2022-08-02T16:11:21;33.50;90.50
12180;DHT22;6153;51.490;6.586;2022-08-02T16:14:22;33.50;89.10
12180;DHT22;6153;51.490;6.586;2022-08-02T16:17:22;33.80;88.50
12180;DHT22;6153;51.490;6.586;2022-08-02T16:20:23;33.30;89.00
12180;DHT22;6153;51.490;6.586;2022-08-02T16:23:24;33.80;88.10
12180;DHT22;6153;51.490;6.586;2022-08-02T16:26:25;33.60;88.50
12180;DHT22;6153;51.490;6.586;2022-08-02T16:29:28;33.50;87.90
12180;DHT22;6153;51.490;6.586;2022-08-02T16:32:29;33.80;88.70
12180;DHT22;6153;51.490;6.586;2022-08-02T16:35:29;33.70;87.50
12180;DHT22;6153;51.490;6.586;2022-08-02T16:38:30;33.40;87.70
12180;DHT22;6153;51.490;6.586;2022-08-02T16:41:31;34.30;87.50
12180;DHT22;6153;51.490;6.586;2022-08-02T16:44:31;34.50;85.30
12180;DHT22;6153;51.490;6.586;2022-08-02T16:47:33;34.60;85.20
12180;DHT22;6153;51.490;6.586;2022-08-02T16:50:35;35.20;84.90
12180;DHT22;6153;51.490;6.586;2022-08-02T16:53:36;34.90;83.10
12180;DHT22;6153;51.490;6.586;2022-08-02T16:56:36;34.70;83.30
12180;DHT22;6153;51.490;6.586;2022-08-02T16:59:37;35.00;82.70
12180;DHT22;6153;51.490;6.586;2022-08-02T17:02:38;35.30;82.50
12180;DHT22;6153;51.490;6.586;2022-08-02T17:05:39;36.10;80.50
12180;DHT22;6153;51.490;6.586;2022-08-02T17:08:40;35.60;80.30
12180;DHT22;6153;51.490;6.586;2022-08-02T17:11:41;34.80;80.80
12180;DHT22;6153;51.490;6.586;2022-08-02T17:14:42;34.80;81.20
12180;DHT22;6153;51.490;6.586;2022-08-02T17:17:45;35.50;79.70
12180;DHT22;6153;51.490;6.586;2022-08-02T17:20:46;36.40;80.00
12180;DHT22;6153;51.490;6.586;2022-08-02T17:23:47;36.50;78.20
12180;DHT22;6153;51.490;6.586;2022-08-02T17:26:47;35.40;78.40
12180;DHT22;6153;51.490;6.586;2022-08-02T17:29:48;35.30;79.10
12180;DHT22;6153;51.490;6.586;2022-08-02T17:32:49;35.10;78.60
12180;DHT22;6153;51.490;6.586;2022-08-02T17:35:50;34.80;78.10
12180;DHT22;6153;51.490;6.586;2022-08-02T17:38:50;34.60;79.00
12180;DHT22;6153;51.490;6.586;2022-08-02T17:41:51;34.80;78.10
12180;DHT22;6153;51.490;6.586;2022-08-02T17:44:52;34.50;78.70
12180;DHT22;6153;51.490;6.586;2022-08-02T17:47:53;35.00;78.90
12180;DHT22;6153;51.490;6.586;2022-08-02T17:50:54;34.70;78.40
12180;DHT22;6153;51.490;6.586;2022-08-02T17:53:55;34.70;78.60
12180;DHT22;6153;51.490;6.586;2022-08-02T17:56:56;34.90;78.80
12180;DHT22;6153;51.490;6.586;2022-08-02T17:59:58;36.00;78.00
12180;DHT22;6153;51.490;6.586;2022-08-02T18:02:59;35.50;77.00
12180;DHT22;6153;51.490;6.586;2022-08-02T18:06:01;35.70;77.30
12180;DHT22;6153;51.490;6.586;2022-08-02T18:09:03;35.50;77.50
12180;DHT22;6153;51.490;6.586;2022-08-02T18:12:04;35.30;77.60
12180;DHT22;6153;51.490;6.586;2022-08-02T18:15:05;35.30;77.40
12180;DHT22;6153;51.490;6.586;2022-08-02T18:18:05;35.30;77.40
12180;DHT22;6153;51.490;6.586;2022-08-02T18:21:06;35.30;77.60
12180;DHT22;6153;51.490;6.586;2022-08-02T18:24:07;35.40;78.00
12180;DHT22;6153;51.490;6.586;2022-08-02T18:27:08;35.40;77.80
12180;DHT22;6153;51.490;6.586;2022-08-02T18:30:09;33.90;78.70
12180;DHT22;6153;51.490;6.586;2022-08-02T18:33:10;34.50;79.50
12180;DHT22;6153;51.490;6.586;2022-08-02T18:36:11;34.20;79.80
12180;DHT22;6153;51.490;6.586;2022-08-02T18:39:12;34.10;79.70
12180;DHT22;6153;51.490;6.586;2022-08-02T18:42:12;33.80;80.30
12180;DHT22;6153;51.490;6.586;2022-08-02T18:45:13;33.40;80.90
12180;DHT22;6153;51.490;6.586;2022-08-02T18:48:14;33.70;81.00
12180;DHT22;6153;51.490;6.586;2022-08-02T18:51:15;33.50;81.50
12180;DHT22;6153;51.490;6.586;2022-08-02T18:54:16;33.30;82.10
12180;DHT22;6153;51.490;6.586;2022-08-02T18:57:17;32.90;82.20
12180;DHT22;6153;51.490;6.586;2022-08-02T19:00:18;32.10;83.70
12180;DHT22;6153;51.490;6.586;2022-08-02T19:03:18;30.70;85.60
12180;DHT22;6153;51.490;6.586;2022-08-02T19:06:19;29.70;87.40
12180;DHT22;6153;51.490;6.586;2022-08-02T19:09:20;29.20;88.70
12180;DHT22;6153;51.490;6.586;2022-08-02T19:12:20;28.90;90.30
12180;DHT22;6153;51.490;6.586;2022-08-02T19:15:21;28.60;90.40
12180;DHT22;6153;51.490;6.586;2022-08-02T19:18:21;28.40;91.10
12180;DHT22;6153;51.490;6.586;2022-08-02T19:21:22;28.10;91.70
12180;DHT22;6153;51.490;6.586;2022-08-02T19:24:22;27.80;92.30
12180;DHT22;6153;51.490;6.586;2022-08-02T19:27:23;27.50;93.10
12180;DHT22;6153;51.490;6.586;2022-08-02T19:30:24;27.40;93.90
12180;DHT22;6153;51.490;6.586;2022-08-02T19:33:24;27.30;94.50
12180;DHT22;6153;51.490;6.586;2022-08-02T19:36:25;27.00;95.80
12180;DHT22;6153;51.490;6.586;2022-08-02T19:39:26;26.90;96.40
12180;DHT22;6153;51.490;6.586;2022-08-02T19:42:26;26.60;97.50